sensor_id;sensor_type;location;lat;lon;timestamp;pressure;altitude;pressure_sealevel;temperature;humidity
63582;BME280;49727;51.078;17.066;2023-02-15T00:00:24;101867.94;;;-0.81;72.86
63582;BME280;49727;51.078;17.066;2023-02-15T00:31:21;101845.97;;;-1.01;73.46
63582;BME280;49727;51.078;17.066;2023-02-15T00:46:22;101837.22;;;-1.25;73.77
63582;BME280;49727;51.078;17.066;2023-02-15T01:01:22;101834.16;;;-1.63;73.85
63582;BME280;49727;51.078;17.066;2023-02-15T01:16:26;101840.63;;;-1.75;73.79
63582;BME280;49727;51.078;17.066;2023-02-15T01:31:26;101815.22;;;-1.97;74.85
63582;BME280;49727;51.078;17.066;2023-02-15T01:46:37;101797.13;;;-2.03;75.01
63582;BME280;49727;51.078;17.066;2023-02-15T02:01:38;101785.34;;;-2.16;75.49
63582;BME280;49727;51.078;17.066;2023-02-15T02:46:54;101720.97;;;-2.17;76.71
63582;BME280;49727;51.078;17.066;2023-02-15T03:02:03;101712.28;;;-2.18;77.02
63582;BME280;49727;51.078;17.066;2023-02-15T03:17:05;101710.59;;;-2.19;77.38
63582;BME280;49727;51.078;17.066;2023-02-15T03:32:10;101705.72;;;-2.30;76.88
63582;BME280;49727;51.078;17.066;2023-02-15T03:47:25;101694.88;;;-2.44;77.13
63582;BME280;49727;51.078;17.066;2023-02-15T04:02:33;101719.75;;;-2.61;77.22
63582;BME280;49727;51.078;17.066;2023-02-15T04:17:37;101705.53;;;-2.79;77.74
63582;BME280;49727;51.078;17.066;2023-02-15T04:32:38;101682.44;;;-2.91;77.32
63582;BME280;49727;51.078;17.066;2023-02-15T04:47:38;101677.13;;;-2.88;78.09
63582;BME280;49727;51.078;17.066;2023-02-15T05:02:39;101682.06;;;-2.80;78.83
63582;BME280;49727;51.078;17.066;2023-02-15T05:17:39;101685.88;;;-2.91;78.09
63582;BME280;49727;51.078;17.066;2023-02-15T05:32:39;101675.44;;;-2.91;78.49
63582;BME280;49727;51.078;17.066;2023-02-15T05:47:40;101663.47;;;-2.96;79.04
63582;BME280;49727;51.078;17.066;2023-02-15T06:02:40;101665.16;;;-2.95;79.47
63582;BME280;49727;51.078;17.066;2023-02-15T06:17:41;101665.97;;;-2.93;79.58
63582;BME280;49727;51.078;17.066;2023-02-15T06:32:42;101682.56;;;-2.67;79.77
63582;BME280;49727;51.078;17.066;2023-02-15T06:47:43;101663.28;;;-2.10;80.05
63582;BME280;49727;51.078;17.066;2023-02-15T07:02:44;101676.34;;;-1.12;80.71
63582;BME280;49727;51.078;17.066;2023-02-15T07:17:44;101655.91;;;0.26;80.58
63582;BME280;49727;51.078;17.066;2023-02-15T07:32:45;101640.75;;;1.63;78.92
63582;BME280;49727;51.078;17.066;2023-02-15T07:48:05;101647.63;;;2.84;77.78
63582;BME280;49727;51.078;17.066;2023-02-15T08:03:05;101614.31;;;3.31;74.07
63582;BME280;49727;51.078;17.066;2023-02-15T08:18:15;101615.44;;;4.02;74.08
63582;BME280;49727;51.078;17.066;2023-02-15T08:33:15;101593.28;;;5.57;71.91
63582;BME280;49727;51.078;17.066;2023-02-15T08:48:17;101579.84;;;7.11;68.46
63582;BME280;49727;51.078;17.066;2023-02-15T09:03:18;101588.94;;;16.23;53.38
63582;BME280;49727;51.078;17.066;2023-02-15T09:18:18;101574.44;;;22.36;39.33
63582;BME280;49727;51.078;17.066;2023-02-15T09:33:19;101556.63;;;24.91;31.92
63582;BME280;49727;51.078;17.066;2023-02-15T09:48:41;101553.25;;;25.31;25.75
63582;BME280;49727;51.078;17.066;2023-02-15T10:19:11;101529.75;;;28.39;19.37
63582;BME280;49727;51.078;17.066;2023-02-15T10:34:19;101508.63;;;27.34;19.04
63582;BME280;49727;51.078;17.066;2023-02-15T11:05:16;101471.38;;;31.64;15.88
63582;BME280;49727;51.078;17.066;2023-02-15T11:20:25;101452.16;;;32.49;14.56
63582;BME280;49727;51.078;17.066;2023-02-15T11:35:36;101438.34;;;32.83;14.44
63582;BME280;49727;51.078;17.066;2023-02-15T11:50:37;101414.00;;;34.58;13.40
63582;BME280;49727;51.078;17.066;2023-02-15T12:05:40;101388.75;;;33.32;13.76
63582;BME280;49727;51.078;17.066;2023-02-15T12:20:43;101375.78;;;34.08;13.78
63582;BME280;49727;51.078;17.066;2023-02-15T12:35:43;101350.03;;;33.94;13.10
63582;BME280;49727;51.078;17.066;2023-02-15T12:50:51;101341.38;;;35.36;12.89
63582;BME280;49727;51.078;17.066;2023-02-15T13:05:55;101329.19;;;34.35;12.81
63582;BME280;49727;51.078;17.066;2023-02-15T13:20:56;101310.75;;;36.23;12.25
63582;BME280;49727;51.078;17.066;2023-02-15T13:36:05;101297.81;;;35.87;12.21
63582;BME280;49727;51.078;17.066;2023-02-15T13:51:26;101288.00;;;33.48;13.42
63582;BME280;49727;51.078;17.066;2023-02-15T14:06:46;101282.94;;;31.26;14.65
63582;BME280;49727;51.078;17.066;2023-02-15T14:21:59;101277.34;;;29.42;16.47
63582;BME280;49727;51.078;17.066;2023-02-15T14:37:03;101266.03;;;28.64;17.23
63582;BME280;49727;51.078;17.066;2023-02-15T14:52:05;101264.97;;;26.74;18.77
63582;BME280;49727;51.078;17.066;2023-02-15T15:07:21;101264.19;;;23.09;22.01
63582;BME280;49727;51.078;17.066;2023-02-15T15:22:23;101256.81;;;20.68;24.81
63582;BME280;49727;51.078;17.066;2023-02-15T15:53:02;101232.53;;;12.63;35.04
63582;BME280;49727;51.078;17.066;2023-02-15T16:08:03;101222.50;;;9.39;40.15
63582;BME280;49727;51.078;17.066;2023-02-15T16:53:46;101209.53;;;5.39;48.98
63582;BME280;49727;51.078;17.066;2023-02-15T17:08:48;101208.81;;;4.87;51.21
63582;BME280;49727;51.078;17.066;2023-02-15T17:23:50;101198.72;;;4.42;52.84
63582;BME280;49727;51.078;17.066;2023-02-15T17:53:57;101171.59;;;3.61;56.34
63582;BME280;49727;51.078;17.066;2023-02-15T18:09:18;101163.63;;;3.21;57.49
63582;BME280;49727;51.078;17.066;2023-02-15T18:24:38;101160.97;;;2.94;59.05
63582;BME280;49727;51.078;17.066;2023-02-15T18:39:40;101150.53;;;2.50;59.84
63582;BME280;49727;51.078;17.066;2023-02-15T18:54:44;101144.88;;;2.13;61.15
63582;BME280;49727;51.078;17.066;2023-02-15T19:09:47;101142.44;;;1.80;61.69
63582;BME280;49727;51.078;17.066;2023-02-15T19:24:49;101114.09;;;1.40;62.82
63582;BME280;49727;51.078;17.066;2023-02-15T19:39:50;101114.66;;;1.15;63.53
63582;BME280;49727;51.078;17.066;2023-02-15T19:54:53;101107.22;;;0.75;64.42
63582;BME280;49727;51.078;17.066;2023-02-15T20:09:53;101098.66;;;0.56;65.29
63582;BME280;49727;51.078;17.066;2023-02-15T20:24:54;101104.59;;;0.26;65.73
63582;BME280;49727;51.078;17.066;2023-02-15T20:39:56;101091.03;;;0.02;66.76
63582;BME280;49727;51.078;17.066;2023-02-15T20:54:56;101084.75;;;-0.12;67.24
63582;BME280;49727;51.078;17.066;2023-02-15T21:09:57;101074.09;;;-0.09;67.94
63582;BME280;49727;51.078;17.066;2023-02-15T21:24:59;101077.69;;;-0.27;68.42
63582;BME280;49727;51.078;17.066;2023-02-15T21:40:00;101061.13;;;-0.45;68.06
63582;BME280;49727;51.078;17.066;2023-02-15T21:55:08;101052.06;;;-0.56;68.91
63582;BME280;49727;51.078;17.066;2023-02-15T22:10:09;101039.88;;;-0.74;69.00
63582;BME280;49727;51.078;17.066;2023-02-15T22:25:13;101030.41;;;-0.94;69.26
63582;BME280;49727;51.078;17.066;2023-02-15T22:40:15;101028.38;;;-1.07;69.94
63582;BME280;49727;51.078;17.066;2023-02-15T22:55:18;101012.97;;;-1.30;70.12
63582;BME280;49727;51.078;17.066;2023-02-15T23:10:21;101017.63;;;-1.37;70.75
63582;BME280;49727;51.078;17.066;2023-02-15T23:25:22;101020.91;;;-1.51;71.13
63582;BME280;49727;51.078;17.066;2023-02-15T23:40:24;101009.13;;;-1.60;71.67
63582;BME280;49727;51.078;17.066;2023-02-15T23:55:44;101008.00;;;-1.73;71.36
